createdAt,value
2018-09-08T00:00:05.861Z,18.81
2018-09-08T00:02:34.572Z,18.78
2018-09-08T00:05:03.787Z,18.75
2018-09-08T00:07:38.877Z,18.71
2018-09-08T00:10:09.765Z,18.68
2018-09-08T00:12:38.473Z,18.64
2018-09-08T00:15:12.408Z,18.64
2018-09-08T00:17:46.169Z,18.61
2018-09-08T00:20:21.304Z,18.61
2018-09-08T00:22:55.326Z,18.61
2018-09-08T00:25:30.319Z,18.64
2018-09-08T00:28:04.698Z,18.65
2018-09-08T00:30:33.647Z,18.66
2018-09-08T00:33:02.400Z,18.67
2018-09-08T00:35:31.266Z,18.68
2018-09-08T00:37:59.986Z,18.66
2018-09-08T00:40:29.416Z,18.65
2018-09-08T00:42:59.347Z,18.64
2018-09-08T00:45:28.029Z,18.62
2018-09-08T00:47:57.050Z,18.60
2018-09-08T00:50:26.008Z,18.58
2018-09-08T00:52:54.810Z,18.56
2018-09-08T00:55:23.835Z,18.55
2018-09-08T00:57:52.581Z,18.55
2018-09-08T01:00:21.293Z,18.54
2018-09-08T01:02:49.863Z,18.54
2018-09-08T01:05:18.522Z,18.54
2018-09-08T01:07:47.373Z,18.55
2018-09-08T01:10:16.963Z,18.56
2018-09-08T01:12:45.745Z,18.56
2018-09-08T01:15:14.443Z,18.55
2018-09-08T01:17:43.163Z,18.53
2018-09-08T01:20:11.902Z,18.51
2018-09-08T01:22:40.786Z,18.50
2018-09-08T01:25:09.502Z,18.48
2018-09-08T01:27:38.213Z,18.51
2018-09-08T01:30:07.232Z,18.51
2018-09-08T01:32:35.923Z,18.50
2018-09-08T01:35:04.820Z,18.50
2018-09-08T01:37:33.577Z,18.48
2018-09-08T01:40:02.286Z,18.44
2018-09-08T01:42:31.001Z,18.44
2018-09-08T01:44:59.693Z,18.43
2018-09-08T01:47:28.638Z,18.41
2018-09-08T01:49:57.306Z,18.38
2018-09-08T01:52:27.068Z,18.33
2018-09-08T01:54:55.741Z,18.28
2018-09-08T01:57:24.453Z,18.25
2018-09-08T01:59:53.281Z,18.23
2018-09-08T02:02:22.834Z,18.21
2018-09-08T02:04:51.767Z,18.19
2018-09-08T02:07:20.525Z,18.19
2018-09-08T02:09:50.413Z,18.19
2018-09-08T02:12:19.211Z,18.24
2018-09-08T02:14:47.913Z,18.25
2018-09-08T02:17:17.732Z,18.25
2018-09-08T02:19:46.850Z,18.24
2018-09-08T02:22:15.531Z,18.21
2018-09-08T02:24:44.189Z,18.20
2018-09-08T02:27:12.885Z,18.18
2018-09-08T02:29:41.534Z,18.17
2018-09-08T02:32:11.190Z,18.15
2018-09-08T02:34:39.884Z,18.13
2018-09-08T02:37:08.608Z,18.11
2018-09-08T02:39:37.486Z,18.10
2018-09-08T02:42:06.534Z,18.08
2018-09-08T02:44:35.286Z,18.05
2018-09-08T02:47:03.973Z,18.04
2018-09-08T02:49:44.114Z,17.99
2018-09-08T02:52:11.418Z,17.94
2018-09-08T02:54:38.778Z,17.91
2018-09-08T02:57:06.095Z,17.90
2018-09-08T02:59:33.446Z,17.90
2018-09-08T03:02:00.795Z,17.91
2018-09-08T03:04:28.216Z,17.95
2018-09-08T03:06:55.523Z,17.97
2018-09-08T03:09:22.842Z,17.99
2018-09-08T03:11:50.178Z,18.00
2018-09-08T03:14:17.655Z,18.01
2018-09-08T03:16:44.969Z,18.03
2018-09-08T03:19:12.441Z,18.04
2018-09-08T03:21:40.822Z,18.05
2018-09-08T03:24:09.127Z,18.06
2018-09-08T03:26:37.697Z,18.06
2018-09-08T03:29:05.003Z,18.03
2018-09-08T03:31:33.270Z,18.00
2018-09-08T03:34:00.638Z,17.98
2018-09-08T03:36:28.492Z,17.95
2018-09-08T03:38:55.818Z,17.94
2018-09-08T03:41:23.285Z,17.91
2018-09-08T03:43:50.957Z,17.88
2018-09-08T03:46:18.567Z,17.81
2018-09-08T03:48:46.859Z,17.72
2018-09-08T03:51:14.190Z,17.61
2018-09-08T03:53:41.524Z,17.49
2018-09-08T03:56:09.472Z,17.27
2018-09-08T03:58:36.837Z,17.09
2018-09-08T04:01:04.133Z,16.96
2018-09-08T04:03:32.713Z,16.84
2018-09-08T04:06:01.405Z,16.76
2018-09-08T04:08:30.093Z,16.67
2018-09-08T04:10:58.762Z,16.60
2018-09-08T04:13:27.568Z,16.57
2018-09-08T04:15:56.168Z,16.55
2018-09-08T04:18:24.824Z,16.52
2018-09-08T04:20:53.530Z,16.52
2018-09-08T04:23:22.222Z,16.50
2018-09-08T04:25:51.021Z,16.49
2018-09-08T04:28:19.715Z,16.46
2018-09-08T04:30:48.344Z,16.47
2018-09-08T04:33:17.090Z,16.44
2018-09-08T04:35:45.779Z,16.44
2018-09-08T04:38:14.475Z,16.43
2018-09-08T04:40:44.264Z,16.43
2018-09-08T04:43:15.115Z,16.44
2018-09-08T04:45:44.139Z,16.44
2018-09-08T04:48:12.910Z,16.46
2018-09-08T04:50:42.117Z,16.46
2018-09-08T04:53:10.757Z,16.46
2018-09-08T04:55:39.705Z,16.48
2018-09-08T04:58:08.517Z,16.49
2018-09-08T05:00:37.066Z,16.49
2018-09-08T05:03:05.801Z,16.52
2018-09-08T05:05:34.676Z,16.51
2018-09-08T05:08:04.284Z,16.52
2018-09-08T05:10:33.662Z,16.54
2018-09-08T05:13:02.369Z,16.57
2018-09-08T05:15:31.678Z,16.59
2018-09-08T05:18:00.434Z,16.61
2018-09-08T05:20:29.169Z,16.63
2018-09-08T05:22:57.789Z,16.65
2018-09-08T05:25:26.513Z,16.69
2018-09-08T05:27:55.291Z,16.71
2018-09-08T05:30:24.913Z,16.73
2018-09-08T05:32:53.633Z,16.77
2018-09-08T05:35:22.260Z,16.78
2018-09-08T05:37:51.099Z,16.82
2018-09-08T05:40:19.955Z,16.87
2018-09-08T05:42:48.770Z,16.90
2018-09-08T05:45:17.442Z,16.94
2018-09-08T05:47:46.176Z,17.00
2018-09-08T05:50:14.889Z,17.07
2018-09-08T05:52:43.635Z,17.14
2018-09-08T05:55:12.400Z,17.21
2018-09-08T05:57:41.110Z,17.25
2018-09-08T06:00:10.922Z,17.29
2018-09-08T06:02:39.673Z,17.34
2018-09-08T06:05:08.370Z,17.37
2018-09-08T06:07:37.492Z,17.38
2018-09-08T06:10:06.341Z,17.41
2018-09-08T06:12:36.026Z,17.45
2018-09-08T06:15:04.806Z,17.47
2018-09-08T06:17:33.529Z,17.43
2018-09-08T06:20:02.441Z,17.46
2018-09-08T06:22:31.152Z,17.51
2018-09-08T06:24:59.890Z,17.55
2018-09-08T06:27:28.581Z,17.60
2018-09-08T06:29:57.617Z,17.65
2018-09-08T06:32:26.431Z,17.72
2018-09-08T06:34:56.138Z,17.74
2018-09-08T06:37:25.617Z,17.71
2018-09-08T06:39:54.873Z,17.72
2018-09-08T06:42:24.641Z,17.72
2018-09-08T06:44:55.411Z,17.73
2018-09-08T06:47:24.170Z,17.79
2018-09-08T06:49:52.792Z,17.88
2018-09-08T06:52:21.819Z,17.91
2018-09-08T06:54:50.533Z,17.93
2018-09-08T06:57:19.159Z,17.94
2018-09-08T06:59:47.953Z,17.93
2018-09-08T07:02:16.698Z,17.93
2018-09-08T07:04:45.699Z,17.95
2018-09-08T07:07:14.506Z,18.05
2018-09-08T07:09:44.030Z,18.02
2018-09-08T07:12:12.837Z,17.93
2018-09-08T07:14:42.685Z,17.74
2018-09-08T07:17:12.362Z,17.61
2018-09-08T07:19:41.133Z,17.44
2018-09-08T07:22:09.823Z,17.29
2018-09-08T07:24:38.442Z,17.19
2018-09-08T07:27:07.198Z,17.03
2018-09-08T07:29:35.959Z,16.90
2018-09-08T07:32:04.742Z,16.78
2018-09-08T07:34:33.438Z,16.69
2018-09-08T07:37:03.105Z,16.61
2018-09-08T07:39:31.835Z,16.53
2018-09-08T07:42:01.155Z,16.49
2018-09-08T07:44:29.786Z,16.49
2018-09-08T07:46:58.483Z,16.46
2018-09-08T07:49:29.333Z,16.46
2018-09-08T07:51:58.028Z,16.50
2018-09-08T07:54:26.664Z,16.55
2018-09-08T07:56:55.683Z,16.60
2018-09-08T07:59:25.164Z,16.61
2018-09-08T08:01:54.633Z,16.69
2018-09-08T08:04:23.494Z,16.77
2018-09-08T08:06:52.195Z,16.84
2018-09-08T08:09:21.058Z,16.93
2018-09-08T08:11:49.713Z,17.06
2018-09-08T08:14:19.786Z,17.13
2018-09-08T08:16:48.591Z,17.26
2018-09-08T08:19:17.365Z,17.40
2018-09-08T08:21:46.192Z,17.55
2018-09-08T08:24:15.151Z,17.60
2018-09-08T08:26:43.888Z,17.67
2018-09-08T08:29:12.707Z,17.68
2018-09-08T08:31:41.505Z,17.68
2018-09-08T08:34:10.483Z,17.66
2018-09-08T08:36:39.210Z,17.60
2018-09-08T08:39:09.065Z,17.57
2018-09-08T08:41:37.798Z,17.67
2018-09-08T08:44:06.507Z,17.79
2018-09-08T08:46:35.351Z,17.82
2018-09-08T08:49:04.579Z,17.89
2018-09-08T08:52:43.221Z,18.02
2018-09-08T08:55:10.552Z,18.22
2018-09-08T08:57:40.368Z,18.39
2018-09-08T09:00:09.115Z,18.46
2018-09-08T09:02:37.821Z,18.54
2018-09-08T09:05:06.518Z,18.69
2018-09-08T09:07:35.467Z,18.70
2018-09-08T09:10:03.957Z,18.67
2018-09-08T09:12:32.844Z,18.65
2018-09-08T09:15:02.011Z,18.74
2018-09-08T09:17:30.449Z,18.80
2018-09-08T09:20:10.194Z,18.94
2018-09-08T09:22:49.886Z,19.03
2018-09-08T09:25:18.891Z,19.13
2018-09-08T09:27:48.727Z,19.35
2018-09-08T09:30:18.258Z,19.67
2018-09-08T09:32:47.016Z,19.95
2018-09-08T09:35:18.001Z,20.16
2018-09-08T09:37:46.775Z,20.26
2018-09-08T09:40:16.520Z,20.21
2018-09-08T09:42:45.349Z,20.11
2018-09-08T09:45:14.114Z,20.00
2018-09-08T09:47:43.709Z,20.00
2018-09-08T09:50:13.218Z,20.02
2018-09-08T09:52:42.303Z,20.07
2018-09-08T09:55:11.132Z,20.19
2018-09-08T09:57:40.095Z,20.29
2018-09-08T10:00:10.049Z,20.50
2018-09-08T10:02:40.855Z,20.58
2018-09-08T10:05:12.088Z,20.70
2018-09-08T10:07:41.076Z,20.91
2018-09-08T10:10:12.114Z,21.03
2018-09-08T10:12:41.065Z,21.03
2018-09-08T10:15:10.447Z,20.99
2018-09-08T10:17:40.049Z,21.07
2018-09-08T10:20:11.329Z,21.13
2018-09-08T10:22:40.962Z,21.13
2018-09-08T10:25:11.704Z,21.08
2018-09-08T10:27:40.857Z,21.23
2018-09-08T10:30:10.764Z,21.48
2018-09-08T10:32:39.755Z,21.79
2018-09-08T10:35:08.752Z,21.99
2018-09-08T10:37:37.762Z,21.87
2018-09-08T10:40:07.693Z,21.54
2018-09-08T10:42:36.502Z,21.30
2018-09-08T10:45:05.729Z,21.38
2018-09-08T10:47:34.618Z,21.59
2018-09-08T10:50:03.342Z,21.93
2018-09-08T10:52:33.473Z,22.21
2018-09-08T10:55:02.480Z,22.30
2018-09-08T10:57:33.010Z,22.39
2018-09-08T11:00:02.841Z,22.39
2018-09-08T11:02:32.245Z,22.32
2018-09-08T11:05:01.547Z,22.27
2018-09-08T11:07:30.765Z,22.14
2018-09-08T11:10:00.084Z,21.93
2018-09-08T11:12:29.157Z,22.19
2018-09-08T11:14:58.640Z,22.51
2018-09-08T11:17:27.306Z,22.79
2018-09-08T11:19:56.433Z,23.15
2018-09-08T11:22:25.338Z,23.46
2018-09-08T11:24:54.285Z,24.05
2018-09-08T11:27:23.016Z,24.62
2018-09-08T11:29:51.657Z,24.97
2018-09-08T11:32:20.728Z,24.70
2018-09-08T11:34:49.368Z,24.50
2018-09-08T11:37:18.647Z,24.60
2018-09-08T11:39:47.476Z,24.47
2018-09-08T11:42:16.177Z,24.19
2018-09-08T11:44:44.950Z,23.85
2018-09-08T11:47:13.727Z,23.38
2018-09-08T11:49:42.429Z,22.93
2018-09-08T11:52:11.169Z,22.62
2018-09-08T11:54:40.163Z,22.39
2018-09-08T11:57:08.957Z,22.27
2018-09-08T11:59:37.609Z,23.25
2018-09-08T12:02:06.548Z,23.60
2018-09-08T12:04:35.425Z,24.01
2018-09-08T12:07:04.134Z,24.14
2018-09-08T12:09:34.155Z,23.60
2018-09-08T12:12:02.882Z,23.52
2018-09-08T12:14:31.774Z,23.27
2018-09-08T12:17:00.645Z,23.64
2018-09-08T12:19:29.546Z,23.89
2018-09-08T12:21:59.604Z,24.92
2018-09-08T12:24:28.369Z,26.02
2018-09-08T12:26:57.353Z,25.92
2018-09-08T12:29:26.243Z,25.01
2018-09-08T12:31:55.143Z,24.31
2018-09-08T12:34:23.924Z,24.02
2018-09-08T12:36:53.606Z,24.91
2018-09-08T12:39:22.369Z,25.98
2018-09-08T12:41:52.387Z,26.82
2018-09-08T12:44:22.005Z,27.67
2018-09-08T12:46:50.642Z,28.03
2018-09-08T12:49:19.334Z,28.35
2018-09-08T12:51:47.976Z,28.43
2018-09-08T12:54:16.806Z,28.38
2018-09-08T12:56:47.250Z,27.55
2018-09-08T12:59:16.140Z,26.52
2018-09-08T13:01:44.747Z,26.22
2018-09-08T13:04:13.510Z,25.62
2018-09-08T13:06:42.332Z,24.91
2018-09-08T13:09:11.025Z,24.51
2018-09-08T13:11:39.769Z,24.75
2018-09-08T13:14:08.486Z,25.33
2018-09-08T13:16:37.173Z,25.93
2018-09-08T13:19:06.142Z,26.88
2018-09-08T13:21:35.875Z,27.63
2018-09-08T13:24:04.553Z,28.06
2018-09-08T13:26:36.346Z,28.00
2018-09-08T13:29:04.977Z,28.07
2018-09-08T13:31:33.657Z,28.46
2018-09-08T13:34:02.410Z,28.08
2018-09-08T13:36:31.211Z,27.22
2018-09-08T13:39:00.092Z,26.84
2018-09-08T13:41:28.771Z,27.83
2018-09-08T13:43:57.433Z,28.65
2018-09-08T13:46:26.198Z,28.55
2018-09-08T13:48:54.882Z,28.89
2018-09-08T13:51:24.550Z,28.86
2018-09-08T13:53:53.301Z,28.72
2018-09-08T13:56:21.989Z,28.85
2018-09-08T13:58:50.749Z,29.30
2018-09-08T14:01:19.447Z,28.64
2018-09-08T14:03:48.733Z,28.53
2018-09-08T14:06:17.366Z,29.05
2018-09-08T14:08:46.103Z,29.27
2018-09-08T14:11:15.111Z,29.04
2018-09-08T14:13:43.832Z,28.99
2018-09-08T14:16:13.546Z,28.96
2018-09-08T14:18:42.303Z,28.47
2018-09-08T14:21:11.064Z,28.34
2018-09-08T14:23:39.775Z,28.81
2018-09-08T14:26:08.382Z,28.94
2018-09-08T14:28:37.102Z,28.27
2018-09-08T14:31:05.857Z,28.13
2018-09-08T14:33:34.538Z,27.87
2018-09-08T14:36:04.386Z,27.94
2018-09-08T14:38:32.957Z,26.99
2018-09-08T14:41:02.156Z,26.05
2018-09-08T14:43:30.842Z,25.38
2018-09-08T14:45:59.676Z,25.12
2018-09-08T14:48:28.344Z,25.80
2018-09-08T14:50:56.999Z,26.34
2018-09-08T14:53:25.694Z,25.73
2018-09-08T14:55:54.371Z,25.38
2018-09-08T14:58:23.096Z,25.24
2018-09-08T15:00:51.784Z,24.83
2018-09-08T15:03:20.504Z,24.56
2018-09-08T15:05:49.284Z,24.14
2018-09-08T15:08:17.970Z,23.94
2018-09-08T15:10:46.651Z,24.23
2018-09-08T15:13:15.363Z,24.27
2018-09-08T15:15:44.366Z,24.56
2018-09-08T15:18:13.034Z,24.64
2018-09-08T15:20:41.700Z,24.48
2018-09-08T15:23:10.334Z,24.16
2018-09-08T15:25:39.010Z,23.78
2018-09-08T15:28:07.706Z,23.54
2018-09-08T15:30:36.482Z,23.81
2018-09-08T15:33:05.161Z,24.14
2018-09-08T15:35:33.765Z,24.50
2018-09-08T15:38:02.661Z,24.68
2018-09-08T15:40:31.405Z,24.53
2018-09-08T15:43:00.049Z,24.16
2018-09-08T15:45:28.746Z,24.11
2018-09-08T15:47:59.166Z,23.98
2018-09-08T15:50:27.982Z,23.88
2018-09-08T15:52:56.690Z,23.67
2018-09-08T15:55:25.566Z,23.50
2018-09-08T15:57:54.371Z,23.46
2018-09-08T16:00:23.159Z,23.33
2018-09-08T16:02:51.910Z,23.19
2018-09-08T16:05:20.603Z,23.06
2018-09-08T16:07:49.306Z,23.00
2018-09-08T16:10:17.962Z,22.83
2018-09-08T16:12:46.578Z,22.97
2018-09-08T16:15:15.248Z,22.93
2018-09-08T16:17:44.588Z,22.86
2018-09-08T16:20:14.357Z,22.76
2018-09-08T16:22:43.112Z,22.85
2018-09-08T16:25:11.864Z,22.73
2018-09-08T16:27:40.478Z,22.52
2018-09-08T16:30:10.056Z,22.28
2018-09-08T16:32:38.814Z,22.11
2018-09-08T16:35:07.744Z,21.95
2018-09-08T16:37:36.353Z,21.78
2018-09-08T16:40:05.751Z,21.60
2018-09-08T16:42:34.755Z,21.46
2018-09-08T16:45:04.517Z,21.37
2018-09-08T16:47:33.209Z,21.32
2018-09-08T16:50:03.026Z,21.25
2018-09-08T16:52:31.601Z,21.13
2018-09-08T16:55:00.676Z,21.02
2018-09-08T16:57:29.705Z,20.93
2018-09-08T16:59:59.397Z,20.83
2018-09-08T17:02:28.287Z,20.71
2018-09-08T17:04:57.046Z,20.63
2018-09-08T17:07:25.742Z,20.53
2018-09-08T17:09:54.675Z,20.48
2018-09-08T17:12:23.531Z,20.42
2018-09-08T17:14:52.218Z,20.34
2018-09-08T17:17:21.062Z,20.30
2018-09-08T17:19:50.815Z,20.31
2018-09-08T17:22:19.470Z,20.12
2018-09-08T17:24:48.342Z,19.92
2018-09-08T17:27:17.098Z,19.74
2018-09-08T17:29:45.987Z,19.54
2018-09-08T17:32:14.740Z,19.38
2018-09-08T17:34:43.487Z,19.28
2018-09-08T17:37:12.243Z,19.25
2018-09-08T17:39:40.978Z,19.15
2018-09-08T17:42:10.088Z,19.15
2018-09-08T17:44:38.953Z,19.27
2018-09-08T17:47:07.869Z,19.25
2018-09-08T17:49:36.985Z,19.13
2018-09-08T17:52:06.917Z,19.01
2018-09-08T17:54:35.479Z,18.90
2018-09-08T17:57:04.171Z,18.86
2018-09-08T17:59:32.881Z,18.79
2018-09-08T18:02:01.688Z,18.72
2018-09-08T18:04:30.459Z,18.66
2018-09-08T18:06:59.294Z,18.64
2018-09-08T18:09:27.938Z,18.66
2018-09-08T18:11:56.758Z,18.68
2018-09-08T18:14:25.390Z,18.65
2018-09-08T18:16:54.034Z,18.54
2018-09-08T18:19:23.855Z,18.62
2018-09-08T18:21:52.591Z,18.60
2018-09-08T18:24:21.198Z,18.57
2018-09-08T18:26:50.014Z,18.44
2018-09-08T18:29:18.757Z,18.36
2018-09-08T18:31:47.449Z,18.27
2018-09-08T18:34:16.078Z,18.14
2018-09-08T18:36:44.766Z,18.11
2018-09-08T18:39:13.676Z,18.07
2018-09-08T18:41:42.403Z,18.03
2018-09-08T18:44:11.218Z,17.92
2018-09-08T18:46:39.934Z,17.84
2018-09-08T18:49:08.701Z,17.66
2018-09-08T18:51:39.273Z,17.58
2018-09-08T18:54:08.135Z,17.56
2018-09-08T18:56:36.921Z,17.57
2018-09-08T18:59:05.557Z,17.61
2018-09-08T19:01:34.436Z,17.65
2018-09-08T19:04:03.311Z,17.60
2018-09-08T19:06:32.015Z,17.50
2018-09-08T19:09:00.699Z,17.40
2018-09-08T19:11:29.420Z,17.24
2018-09-08T19:13:58.075Z,17.08
2018-09-08T19:16:26.866Z,16.93
2018-09-08T19:18:55.601Z,16.77
2018-09-08T19:21:24.442Z,16.58
2018-09-08T19:23:58.302Z,16.49
2018-09-08T19:26:27.077Z,16.50
2018-09-08T19:29:01.506Z,16.51
2018-09-08T19:31:31.195Z,16.40
2018-09-08T19:33:59.849Z,16.27
2018-09-08T19:36:28.616Z,16.21
2018-09-08T19:38:57.394Z,16.16
2018-09-08T19:41:26.530Z,16.18
2018-09-08T19:43:55.337Z,16.20
2018-09-08T19:46:29.335Z,16.08
2018-09-08T19:48:58.495Z,15.96
2018-09-08T19:51:27.413Z,15.87
2018-09-08T19:53:56.253Z,15.85
2018-09-08T19:56:30.142Z,15.87
2018-09-08T19:58:59.587Z,15.82
2018-09-08T20:01:28.960Z,15.80
2018-09-08T20:03:58.537Z,15.82
2018-09-08T20:06:27.707Z,15.85
2018-09-08T20:08:56.454Z,15.88
2018-09-08T20:11:25.179Z,15.91
2018-09-08T20:13:53.800Z,15.90
2018-09-08T20:16:22.800Z,15.89
2018-09-08T20:18:51.474Z,15.92
2018-09-08T20:21:20.746Z,15.94
2018-09-08T20:23:49.347Z,15.87
2018-09-08T20:26:18.114Z,15.80
2018-09-08T20:28:47.629Z,15.77
2018-09-08T20:31:16.227Z,15.70
2018-09-08T20:33:44.988Z,15.58
2018-09-08T20:36:13.695Z,15.44
2018-09-08T20:38:42.335Z,15.21
2018-09-08T20:41:11.014Z,15.03
2018-09-08T20:43:39.765Z,14.90
2018-09-08T20:46:08.534Z,14.82
2018-09-08T20:48:37.172Z,14.81
2018-09-08T20:51:05.803Z,14.86
2018-09-08T20:53:34.513Z,14.90
2018-09-08T20:56:03.320Z,14.89
2018-09-08T20:58:32.013Z,14.86
2018-09-08T21:01:00.708Z,14.76
2018-09-08T21:03:29.354Z,14.63
2018-09-08T21:05:58.049Z,14.54
2018-09-08T21:08:26.764Z,14.57
2018-09-08T21:10:55.501Z,14.56
2018-09-08T21:13:24.383Z,14.41
2018-09-08T21:15:53.014Z,14.35
2018-09-08T21:18:21.866Z,14.27
2018-09-08T21:20:50.465Z,14.16
2018-09-08T21:23:19.223Z,14.08
2018-09-08T21:25:47.878Z,14.04
2018-09-08T21:28:16.598Z,14.02
2018-09-08T21:30:45.859Z,14.01
2018-09-08T21:33:14.600Z,13.97
2018-09-08T21:35:44.562Z,13.77
2018-09-08T21:38:13.837Z,13.67
2018-09-08T21:40:43.132Z,13.58
2018-09-08T21:43:11.834Z,13.55
2018-09-08T21:45:40.714Z,13.50
2018-09-08T21:48:09.585Z,13.38
2018-09-08T21:50:38.229Z,13.31
2018-09-08T21:53:06.902Z,13.23
2018-09-08T21:55:35.685Z,13.11
2018-09-08T21:58:04.533Z,13.02
2018-09-08T22:00:33.449Z,13.01
2018-09-08T22:03:02.101Z,13.08
2018-09-08T22:05:31.086Z,13.12
2018-09-08T22:07:59.840Z,13.07
2018-09-08T22:10:28.525Z,13.09
2018-09-08T22:12:57.218Z,13.07
2018-09-08T22:15:25.830Z,12.93
2018-09-08T22:17:54.442Z,12.91
2018-09-08T22:20:23.226Z,12.87
2018-09-08T22:22:51.958Z,12.84
2018-09-08T22:25:20.577Z,12.78
2018-09-08T22:27:50.134Z,12.71
2018-09-08T22:30:18.842Z,12.63
2018-09-08T22:32:47.609Z,12.65
2018-09-08T22:35:16.913Z,12.71
2018-09-08T22:37:45.614Z,12.59
2018-09-08T22:40:15.109Z,12.50
2018-09-08T22:42:43.781Z,12.55
2018-09-08T22:45:12.547Z,12.52
2018-09-08T22:47:41.151Z,12.39
2018-09-08T22:50:09.833Z,12.30
2018-09-08T22:52:38.553Z,12.21
2018-09-08T22:55:07.389Z,12.15
2018-09-08T22:57:36.107Z,12.08
2018-09-08T23:00:06.173Z,12.06
2018-09-08T23:02:35.007Z,12.09
2018-09-08T23:05:03.765Z,12.11
2018-09-08T23:07:33.248Z,12.12
2018-09-08T23:10:02.608Z,12.00
2018-09-08T23:12:33.358Z,11.95
2018-09-08T23:15:02.625Z,11.86
2018-09-08T23:17:32.345Z,11.81
2018-09-08T23:20:01.278Z,11.74
2018-09-08T23:22:30.009Z,11.73
2018-09-08T23:24:59.529Z,11.79
2018-09-08T23:27:28.218Z,11.73
2018-09-08T23:29:57.461Z,11.77
2018-09-08T23:32:26.108Z,11.81
2018-09-08T23:34:54.770Z,11.80
2018-09-08T23:37:23.462Z,11.71
2018-09-08T23:39:52.070Z,11.59
2018-09-08T23:42:20.923Z,11.48
2018-09-08T23:44:49.614Z,11.40
2018-09-08T23:47:18.249Z,11.33
2018-09-08T23:49:46.950Z,11.38
2018-09-08T23:52:15.729Z,11.38
2018-09-08T23:54:44.529Z,11.48
2018-09-08T23:57:13.259Z,11.50
2018-09-08T23:59:41.901Z,11.56
